Time;durP1;ratioP1;P1;durP2;ratioP2;P2;SDS_P1;SDS_P2;PMS_P1;PMS_P2;Temp;Humidity;BMP_temperature;BMP_pressure;BME280_temperature;BME280_humidity;BME280_pressure;Samples;Min_cycle;Max_cycle;Signal;HPM_P1;HPM_P2
2020/12/10 00:01:34;;;;;;;24.80;14.05;;;3.90;99.90;;;;;;5070056;28;20978;-56
2020/12/10 00:04:00;;;;;;;22.00;16.03;;;3.80;99.90;;;;;;5069337;28;20197;-57
2020/12/10 00:06:26;;;;;;;20.50;14.87;;;3.90;99.90;;;;;;5069913;28;20204;-55
2020/12/10 00:08:51;;;;;;;20.17;14.47;;;3.90;99.90;;;;;;5069354;28;20294;-56
2020/12/10 00:11:17;;;;;;;19.43;13.40;;;4.00;99.90;;;;;;5069338;28;20626;-56
2020/12/10 00:13:42;;;;;;;21.63;14.10;;;4.00;99.90;;;;;;5072903;28;20189;-57
2020/12/10 00:16:11;;;;;;;19.90;12.80;;;4.00;99.90;;;;;;5069296;28;20577;-56
2020/12/10 00:18:38;;;;;;;17.20;12.90;;;3.80;99.90;;;;;;5067974;28;20227;-56
2020/12/10 00:21:04;;;;;;;18.27;12.65;;;3.90;99.90;;;;;;5069844;28;20177;-56
2020/12/10 00:23:30;;;;;;;20.60;15.00;;;3.90;99.90;;;;;;5069652;28;20719;-55
2020/12/10 00:25:56;;;;;;;20.83;13.50;;;3.80;99.90;;;;;;5069349;28;20239;-57
2020/12/10 00:28:21;;;;;;;19.90;13.73;;;4.00;99.90;;;;;;5069477;28;20177;-56
2020/12/10 00:30:47;;;;;;;21.30;13.57;;;3.90;99.90;;;;;;5069272;28;20427;-56
2020/12/10 00:33:12;;;;;;;20.83;12.77;;;3.50;99.90;;;;;;5069056;28;20185;-56
2020/12/10 00:35:38;;;;;;;22.00;14.50;;;3.60;99.90;;;;;;5066167;28;20220;-57
2020/12/10 00:38:04;;;;;;;22.47;15.03;;;3.90;99.90;;;;;;5069219;28;20185;-55
2020/12/10 00:40:29;;;;;;;22.13;15.50;;;3.50;99.90;;;;;;5069503;28;20208;-56
2020/12/10 00:42:55;;;;;;;18.33;13.87;;;3.50;99.90;;;;;;5069145;28;20305;-56
2020/12/10 00:45:21;;;;;;;23.43;14.80;;;3.70;99.90;;;;;;5069100;28;20287;-55
2020/12/10 00:47:46;;;;;;;22.43;14.93;;;3.90;99.90;;;;;;5069176;28;20185;-56
2020/12/10 00:50:12;;;;;;;18.90;13.77;;;3.70;99.90;;;;;;5068142;28;20185;-57
2020/12/10 00:52:37;;;;;;;21.07;14.50;;;3.90;99.90;;;;;;5069080;28;20230;-56
2020/12/10 00:55:04;;;;;;;19.03;13.90;;;4.10;99.90;;;;;;5069042;28;20208;-56
2020/12/10 00:57:29;;;;;;;19.25;13.23;;;4.00;99.90;;;;;;5069259;28;20673;-56
2020/12/10 00:59:55;;;;;;;23.33;14.97;;;3.80;99.90;;;;;;5068836;28;20280;-57
2020/12/10 01:02:21;;;;;;;20.90;14.30;;;3.90;99.90;;;;;;5069144;28;20741;-57
2020/12/10 01:04:46;;;;;;;18.60;14.20;;;3.70;99.90;;;;;;5069070;28;20213;-57
2020/12/10 01:07:12;;;;;;;18.40;12.90;;;3.90;99.90;;;;;;5068548;28;20645;-58
2020/12/10 01:09:38;;;;;;;19.90;13.37;;;3.80;99.90;;;;;;5067786;28;20244;-57
2020/12/10 01:12:04;;;;;;;21.67;13.40;;;4.10;99.90;;;;;;5067914;28;20192;-57
2020/12/10 01:14:31;;;;;;;18.15;13.18;;;3.90;99.90;;;;;;5068113;28;20208;-57
2020/12/10 01:16:57;;;;;;;22.48;14.68;;;3.90;99.90;;;;;;5068257;28;20221;-58
2020/12/10 01:19:23;;;;;;;20.17;14.05;;;3.60;99.90;;;;;;5068470;28;20706;-57
2020/12/10 01:21:48;;;;;;;18.80;14.00;;;3.80;99.90;;;;;;5068784;28;20189;-56
2020/12/10 01:24:14;;;;;;;21.67;15.57;;;3.80;99.90;;;;;;5068414;28;20201;-57
2020/12/10 01:26:42;;;;;;;22.43;14.27;;;3.50;99.90;;;;;;5068788;28;20231;-56
2020/12/10 01:29:07;;;;;;;18.80;13.15;;;3.20;99.90;;;;;;5067615;28;20334;-57
2020/12/10 01:31:33;;;;;;;18.83;13.50;;;3.80;99.90;;;;;;5067673;28;20277;-57
2020/12/10 01:33:59;;;;;;;18.93;13.30;;;3.50;99.90;;;;;;5068349;28;20209;-57
2020/12/10 01:36:28;;;;;;;20.67;13.00;;;3.60;99.90;;;;;;5067922;28;20685;-57
2020/12/10 01:38:54;;;;;;;23.77;14.40;;;3.70;99.90;;;;;;5078827;28;20188;-57
2020/12/10 01:41:26;;;;;;;18.63;12.83;;;3.70;99.90;;;;;;5068081;28;20196;-57
2020/12/10 01:44:09;;;;;;;21.35;13.20;;;3.00;99.90;;;;;;5068392;28;20806;-56
2020/12/10 01:46:36;;;;;;;14.80;10.75;;;3.50;99.90;;;;;;5067999;28;20212;-56
2020/12/10 01:49:03;;;;;;;17.42;11.73;;;3.80;99.90;;;;;;5067215;28;20648;-57
2020/12/10 01:51:30;;;;;;;20.58;11.57;;;3.80;99.90;;;;;;5067291;28;20655;-57
2020/12/10 01:53:56;;;;;;;16.90;13.10;;;3.90;99.90;;;;;;5067869;28;20280;-57
2020/12/10 01:56:22;;;;;;;19.05;12.63;;;3.90;99.90;;;;;;5067945;28;20295;-57
2020/12/10 01:58:48;;;;;;;19.20;12.57;;;3.50;99.90;;;;;;5067929;28;20790;-57
2020/12/10 02:01:15;;;;;;;18.40;12.50;;;3.30;99.90;;;;;;5067986;28;20192;-57
2020/12/10 02:03:40;;;;;;;16.65;11.30;;;3.30;99.90;;;;;;5067973;28;20715;-56
2020/12/10 02:06:06;;;;;;;21.17;13.03;;;3.20;99.90;;;;;;5067737;28;20212;-56
2020/12/10 02:08:32;;;;;;;18.27;12.63;;;3.30;99.90;;;;;;5066840;28;20193;-57
2020/12/10 02:10:58;;;;;;;17.58;12.00;;;3.40;99.90;;;;;;5067089;28;20224;-56
2020/12/10 02:13:24;;;;;;;20.63;13.23;;;3.60;99.90;;;;;;5067628;28;20216;-56
2020/12/10 02:15:50;;;;;;;15.90;11.73;;;3.40;99.90;;;;;;5067545;28;20304;-57
2020/12/10 02:18:16;;;;;;;18.58;11.73;;;3.50;99.90;;;;;;5067551;28;20242;-56
2020/12/10 02:20:42;;;;;;;19.50;12.60;;;3.60;99.90;;;;;;5067692;28;20185;-56
2020/12/10 02:23:09;;;;;;;19.02;12.25;;;3.50;99.90;;;;;;5067137;28;20184;-56
2020/12/10 02:25:36;;;;;;;16.42;12.35;;;3.30;99.90;;;;;;5067454;28;20208;-56
2020/12/10 02:28:06;;;;;;;16.85;11.30;;;3.60;99.90;;;;;;5067760;28;20185;-55
2020/12/10 02:30:32;;;;;;;19.08;12.57;;;3.50;99.90;;;;;;5066866;28;20229;-55
2020/12/10 02:33:03;;;;;;;21.48;13.05;;;3.70;99.90;;;;;;5067527;28;20512;-57
2020/12/10 02:35:30;;;;;;;18.63;13.40;;;3.80;99.90;;;;;;5072270;28;20237;-56
2020/12/10 02:37:57;;;;;;;15.52;11.25;;;3.80;99.90;;;;;;5067262;28;20678;-56
2020/12/10 02:40:25;;;;;;;16.67;12.43;;;3.70;99.90;;;;;;5068545;28;20191;-56
2020/12/10 02:42:51;;;;;;;17.38;12.13;;;4.00;99.90;;;;;;5072915;28;20189;-57
2020/12/10 02:45:18;;;;;;;20.33;12.63;;;3.60;99.90;;;;;;5071390;28;20714;-56
2020/12/10 02:47:44;;;;;;;16.17;12.88;;;3.70;99.90;;;;;;5071551;28;20181;-56
2020/12/10 02:50:09;;;;;;;21.70;13.03;;;3.70;99.90;;;;;;5068788;28;20201;-55
2020/12/10 02:52:35;;;;;;;19.80;13.40;;;3.80;99.90;;;;;;5087271;28;20808;-57
2020/12/10 02:55:01;;;;;;;18.27;12.47;;;3.70;99.90;;;;;;5072846;28;20229;-57
2020/12/10 02:57:27;;;;;;;19.75;13.02;;;3.60;99.90;;;;;;5071083;28;20192;-56
2020/12/10 02:59:52;;;;;;;18.43;13.03;;;3.80;99.90;;;;;;5071079;28;20192;-56
2020/12/10 03:02:18;;;;;;;18.30;12.57;;;3.90;99.90;;;;;;5070900;28;20185;-55
2020/12/10 03:04:43;;;;;;;16.40;11.80;;;3.70;99.90;;;;;;5070984;28;20272;-57
2020/12/10 03:07:09;;;;;;;19.57;13.00;;;3.60;99.90;;;;;;5070810;28;20193;-57
2020/12/10 03:09:35;;;;;;;18.87;13.90;;;3.70;99.90;;;;;;5070913;28;20276;-56
2020/12/10 03:12:00;;;;;;;19.07;13.73;;;3.40;99.90;;;;;;5070320;28;20185;-57
2020/12/10 03:14:26;;;;;;;17.87;13.03;;;3.40;99.90;;;;;;5072461;28;20212;-56
2020/12/10 03:16:52;;;;;;;23.07;15.03;;;3.70;99.90;;;;;;5070595;28;20438;-57
2020/12/10 03:19:17;;;;;;;22.87;14.30;;;2.70;99.90;;;;;;5090677;28;20638;-56
2020/12/10 03:21:43;;;;;;;21.20;13.90;;;3.50;99.90;;;;;;5084365;28;20185;-56
2020/12/10 03:24:09;;;;;;;21.87;14.50;;;3.40;99.90;;;;;;5070461;28;20185;-57
2020/12/10 03:26:34;;;;;;;21.17;13.67;;;3.70;99.90;;;;;;5070878;28;20451;-56
2020/12/10 03:29:00;;;;;;;21.07;14.20;;;3.40;99.90;;;;;;5064144;28;20185;-56
2020/12/10 03:31:26;;;;;;;23.67;14.57;;;3.70;99.90;;;;;;5070136;28;20942;-58
2020/12/10 03:33:52;;;;;;;18.60;12.93;;;3.70;99.90;;;;;;5070770;28;20189;-56
2020/12/10 03:36:17;;;;;;;22.70;14.40;;;3.70;99.90;;;;;;5070670;28;20292;-56
2020/12/10 03:38:43;;;;;;;18.50;13.13;;;3.60;99.90;;;;;;5071667;28;20182;-56
2020/12/10 03:41:10;;;;;;;20.33;13.90;;;3.60;99.90;;;;;;5069382;28;20223;-56
2020/12/10 03:43:36;;;;;;;20.20;14.05;;;3.60;99.90;;;;;;5070756;28;20188;-57
2020/12/10 03:46:02;;;;;;;22.00;14.20;;;3.60;99.90;;;;;;5070246;28;20987;-56
2020/12/10 03:48:27;;;;;;;23.60;15.73;;;3.80;99.90;;;;;;5070521;28;20189;-55
2020/12/10 03:50:53;;;;;;;21.17;14.30;;;3.50;99.90;;;;;;5077195;28;20470;-56
2020/12/10 03:53:19;;;;;;;23.60;14.90;;;3.50;99.90;;;;;;5070015;28;20279;-55
2020/12/10 03:55:45;;;;;;;20.57;12.80;;;3.70;99.90;;;;;;5069662;28;20235;-57
2020/12/10 03:58:10;;;;;;;20.17;14.10;;;3.70;99.90;;;;;;5070585;28;20772;-55
2020/12/10 04:00:36;;;;;;;21.40;12.80;;;3.50;99.90;;;;;;5070564;28;20223;-57
2020/12/10 04:03:02;;;;;;;22.43;13.97;;;3.70;99.90;;;;;;5070138;28;20675;-56
2020/12/10 04:05:28;;;;;;;24.20;14.80;;;3.40;99.90;;;;;;5069570;28;20213;-56
2020/12/10 04:07:53;;;;;;;21.53;14.03;;;3.60;99.90;;;;;;5069783;28;20189;-56
2020/12/10 04:10:19;;;;;;;22.83;14.10;;;3.80;99.90;;;;;;5069933;28;20585;-57
2020/12/10 04:12:44;;;;;;;21.93;14.20;;;3.60;99.90;;;;;;5068588;28;20196;-56
2020/12/10 04:15:10;;;;;;;21.07;14.53;;;3.80;99.90;;;;;;5069742;28;20220;-57
2020/12/10 04:17:35;;;;;;;21.57;14.53;;;3.60;99.90;;;;;;5069773;28;20196;-56
2020/12/10 04:20:01;;;;;;;22.57;15.57;;;3.90;99.90;;;;;;5066033;28;20186;-57
2020/12/10 04:22:27;;;;;;;24.50;16.23;;;3.60;99.90;;;;;;5069695;28;20798;-57
2020/12/10 04:24:53;;;;;;;21.17;14.17;;;3.60;99.90;;;;;;5069727;28;20514;-55
2020/12/10 04:27:18;;;;;;;28.10;15.60;;;3.80;99.90;;;;;;5068980;28;20189;-57
2020/12/10 04:29:44;;;;;;;27.83;14.70;;;3.50;99.90;;;;;;5069017;28;20942;-55
2020/12/10 04:32:09;;;;;;;24.10;14.90;;;3.60;99.90;;;;;;5068987;28;20196;-56
2020/12/10 04:34:35;;;;;;;22.80;14.87;;;3.60;99.90;;;;;;5069360;28;20216;-57
2020/12/10 04:37:00;;;;;;;22.67;14.43;;;3.60;99.90;;;;;;5068774;28;20215;-56
2020/12/10 04:39:26;;;;;;;25.30;15.00;;;3.60;99.90;;;;;;5069579;28;20188;-55
2020/12/10 04:41:52;;;;;;;22.00;14.40;;;3.60;99.90;;;;;;5069314;28;20192;-57
2020/12/10 04:44:17;;;;;;;26.10;15.43;;;3.60;99.90;;;;;;5069233;28;20246;-56
2020/12/10 04:46:44;;;;;;;26.13;16.27;;;3.60;99.90;;;;;;5069057;28;20696;-56
2020/12/10 04:49:11;;;;;;;20.30;14.27;;;3.60;99.90;;;;;;5068330;28;20239;-56
2020/12/10 04:51:39;;;;;;;30.92;16.90;;;3.30;99.90;;;;;;5068653;28;20189;-55
2020/12/10 04:54:05;;;;;;;27.05;15.18;;;3.60;99.90;;;;;;5068663;28;20723;-56
2020/12/10 04:56:31;;;;;;;20.97;15.13;;;3.60;99.90;;;;;;5068660;28;20209;-57
2020/12/10 04:58:56;;;;;;;26.17;15.70;;;3.60;99.90;;;;;;5068979;28;20209;-56
2020/12/10 05:01:23;;;;;;;24.60;16.67;;;3.40;99.90;;;;;;5069096;28;20235;-56
2020/12/10 05:03:48;;;;;;;23.63;16.10;;;3.20;99.90;;;;;;5068128;28;20438;-56
2020/12/10 05:06:15;;;;;;;22.90;15.30;;;3.50;99.90;;;;;;5068910;28;20216;-56
2020/12/10 05:08:43;;;;;;;21.73;15.15;;;3.60;99.90;;;;;;5068540;28;20434;-56
2020/12/10 05:11:09;;;;;;;23.98;14.20;;;3.50;99.90;;;;;;5068661;28;20188;-56
2020/12/10 05:13:36;;;;;;;20.02;14.10;;;3.60;99.90;;;;;;5068504;28;20326;-55
2020/12/10 05:16:01;;;;;;;21.20;14.82;;;3.50;99.90;;;;;;5068274;28;20223;-56
2020/12/10 05:18:30;;;;;;;23.60;16.40;;;3.40;99.90;;;;;;5068404;28;20541;-56
2020/12/10 05:20:57;;;;;;;24.00;14.40;;;3.30;99.90;;;;;;5068398;28;20435;-57
2020/12/10 05:23:37;;;;;;;22.15;14.52;;;3.20;99.90;;;;;;5068278;28;20234;-56
2020/12/10 05:26:05;;;;;;;19.80;14.90;;;3.50;99.90;;;;;;5055967;28;20231;-56
2020/12/10 05:28:45;;;;;;;24.38;15.27;;;3.40;99.90;;;;;;5055254;28;20182;-57
2020/12/10 05:31:13;;;;;;;20.85;14.32;;;3.40;99.90;;;;;;5067815;28;20173;-56
2020/12/10 05:33:58;;;;;;;23.17;15.27;;;3.40;99.90;;;;;;5068213;28;20250;-57
2020/12/10 05:36:26;;;;;;;23.02;14.50;;;3.50;99.90;;;;;;5068258;28;20240;-57
2020/12/10 05:39:04;;;;;;;23.77;15.32;;;3.60;99.90;;;;;;5067748;28;20181;-55
2020/12/10 05:41:32;;;;;;;23.25;14.25;;;3.60;99.90;;;;;;5067760;28;20637;-56
2020/12/10 05:44:13;;;;;;;24.10;14.98;;;3.60;99.90;;;;;;5064251;28;20173;-57
2020/12/10 05:46:39;;;;;;;25.05;15.02;;;3.50;99.90;;;;;;5087363;28;20219;-55
2020/12/10 05:49:05;;;;;;;22.60;15.83;;;3.80;99.90;;;;;;5067442;28;20194;-56
2020/12/10 05:51:40;;;;;;;29.67;17.23;;;3.50;99.90;;;;;;5064632;28;20181;-56
2020/12/10 05:54:09;;;;;;;35.85;16.23;;;3.50;99.90;;;;;;5082243;28;20241;-56
2020/12/10 05:56:58;;;;;;;25.58;16.25;;;3.60;99.90;;;;;;5084688;28;20677;-56
2020/12/10 05:59:24;;;;;;;29.00;16.13;;;3.70;99.90;;;;;;5068313;28;20223;-57
2020/12/10 06:01:50;;;;;;;25.50;16.48;;;3.50;99.90;;;;;;5063862;28;20268;-56
2020/12/10 06:04:16;;;;;;;25.23;16.10;;;3.80;99.90;;;;;;5065236;28;21039;-57
2020/12/10 06:06:41;;;;;;;25.37;16.03;;;3.80;99.90;;;;;;5065399;28;20215;-57
2020/12/10 06:09:08;;;;;;;21.90;15.00;;;3.80;99.90;;;;;;5065738;28;20436;-58
2020/12/10 06:11:34;;;;;;;25.30;16.10;;;3.60;99.90;;;;;;5065219;28;20300;-56
2020/12/10 06:14:05;;;;;;;22.55;15.65;;;3.70;99.90;;;;;;5065541;28;20627;-57
2020/12/10 06:16:35;;;;;;;25.23;15.15;;;3.50;99.90;;;;;;5066618;28;20226;-57
2020/12/10 06:19:04;;;;;;;22.38;14.98;;;3.60;99.90;;;;;;5065450;28;20571;-58
2020/12/10 06:21:39;;;;;;;26.40;15.93;;;3.70;99.90;;;;;;5066042;28;20560;-57
2020/12/10 06:24:26;;;;;;;25.08;14.68;;;3.70;99.90;;;;;;5067148;28;20564;-58
2020/12/10 06:26:57;;;;;;;26.65;16.13;;;3.40;99.90;;;;;;5064157;28;20188;-56
2020/12/10 06:29:24;;;;;;;21.70;15.25;;;3.40;99.90;;;;;;5064373;28;20213;-56
2020/12/10 06:32:12;;;;;;;20.75;13.80;;;3.70;99.90;;;;;;5066240;28;20359;-58
2020/12/10 06:34:48;;;;;;;23.38;15.20;;;3.40;99.90;;;;;;5064088;28;20208;-55
2020/12/10 06:37:21;;;;;;;24.27;16.25;;;3.20;99.90;;;;;;5066695;28;20176;-57
2020/12/10 06:39:52;;;;;;;20.48;14.38;;;3.40;99.90;;;;;;5066479;28;20181;-58
2020/12/10 06:42:18;;;;;;;24.00;14.52;;;3.50;99.90;;;;;;5061738;28;20180;-56
2020/12/10 06:44:45;;;;;;;19.73;13.18;;;4.00;99.90;;;;;;5080126;28;20176;-59
2020/12/10 06:47:10;;;;;;;23.70;14.02;;;3.80;99.90;;;;;;5065896;28;20185;-57
2020/12/10 06:49:37;;;;;;;22.93;15.00;;;3.90;99.90;;;;;;5064165;28;20200;-58
2020/12/10 06:52:15;;;;;;;21.80;14.30;;;3.50;99.90;;;;;;5061813;28;20196;-56
2020/12/10 06:55:12;;;;;;;25.05;14.70;;;3.60;99.90;;;;;;5065149;28;20265;-57
2020/12/10 07:00:53;;;;;;;21.77;13.43;;;3.70;99.90;;;;;;5059843;28;20193;-56
2020/12/10 07:03:25;;;;;;;18.15;13.60;;;4.20;99.90;;;;;;5064210;28;20220;-56
2020/12/10 07:05:51;;;;;;;22.77;14.55;;;4.00;99.90;;;;;;5083487;28;20245;-56
2020/12/10 07:08:18;;;;;;;24.77;14.60;;;3.20;99.90;;;;;;5065284;28;20215;-56
2020/12/10 07:10:47;;;;;;;23.65;14.77;;;3.90;99.90;;;;;;5063785;28;20746;-57
2020/12/10 07:13:17;;;;;;;21.67;15.57;;;4.10;99.90;;;;;;5066205;28;20192;-56
2020/12/10 07:15:49;;;;;;;20.27;13.20;;;3.90;99.90;;;;;;5066971;28;20219;-57
2020/12/10 07:18:15;;;;;;;21.83;14.63;;;4.00;99.90;;;;;;5065663;28;20188;-58
2020/12/10 07:20:41;;;;;;;22.27;15.93;;;3.70;99.90;;;;;;5065955;28;20181;-58
2020/12/10 07:23:07;;;;;;;23.67;14.98;;;3.80;99.90;;;;;;5065046;28;20465;-58
2020/12/10 07:25:33;;;;;;;27.30;14.90;;;3.60;99.90;;;;;;5063316;28;20224;-57
2020/12/10 07:27:59;;;;;;;25.23;15.73;;;3.80;99.90;;;;;;5068624;28;20221;-57
2020/12/10 07:30:29;;;;;;;22.52;13.90;;;3.50;99.90;;;;;;5068822;28;20726;-56
2020/12/10 07:32:56;;;;;;;21.92;13.65;;;3.60;99.90;;;;;;5068006;28;20267;-56
2020/12/10 07:35:38;;;;;;;24.23;15.02;;;3.90;99.90;;;;;;5070556;28;20217;-56
2020/12/10 07:38:11;;;;;;;26.30;15.60;;;3.80;99.90;;;;;;5067270;28;20613;-56
2020/12/10 07:40:37;;;;;;;26.75;16.95;;;3.80;99.90;;;;;;5070173;28;20181;-56
2020/12/10 07:43:08;;;;;;;24.83;15.13;;;3.60;99.90;;;;;;5069992;28;20673;-58
2020/12/10 07:45:35;;;;;;;25.60;15.65;;;3.80;99.90;;;;;;5069241;28;20865;-58
2020/12/10 07:48:03;;;;;;;23.25;15.32;;;3.90;99.90;;;;;;5068948;28;20193;-58
2020/12/10 07:50:31;;;;;;;21.73;13.98;;;3.80;99.90;;;;;;5069259;28;20524;-57
2020/12/10 07:52:59;;;;;;;20.52;14.38;;;3.90;99.90;;;;;;5069048;28;20181;-58
2020/12/10 07:55:26;;;;;;;26.33;16.67;;;3.90;99.90;;;;;;5068030;28;20228;-58
2020/12/10 07:58:10;;;;;;;26.35;17.00;;;3.60;99.90;;;;;;5067451;28;20231;-58
2020/12/10 08:00:36;;;;;;;21.48;14.88;;;3.80;99.90;;;;;;5069239;28;20200;-57
2020/12/10 08:03:34;;;;;;;18.52;13.30;;;3.90;99.90;;;;;;5070479;28;20237;-58
2020/12/10 08:06:10;;;;;;;20.70;14.10;;;4.00;99.90;;;;;;5067007;28;20219;-56
2020/12/10 08:08:39;;;;;;;22.45;14.70;;;3.70;99.90;;;;;;5068712;28;20208;-57
2020/12/10 08:11:19;;;;;;;22.75;14.57;;;3.90;99.90;;;;;;5066735;28;20230;-59
2020/12/10 08:13:55;;;;;;;24.05;14.05;;;4.10;99.90;;;;;;5078414;28;20220;-58
2020/12/10 08:16:21;;;;;;;23.48;15.65;;;4.10;99.90;;;;;;5069240;28;20201;-58
2020/12/10 08:18:47;;;;;;;23.13;14.07;;;3.90;99.90;;;;;;5067733;28;20193;-57
2020/12/10 08:21:28;;;;;;;24.10;15.00;;;4.10;99.90;;;;;;5069101;28;20185;-58
2020/12/10 08:23:53;;;;;;;22.33;15.18;;;4.00;99.90;;;;;;5068697;28;20182;-59
2020/12/10 08:26:19;;;;;;;22.70;15.23;;;4.00;99.90;;;;;;5069175;28;20232;-58
2020/12/10 08:28:52;;;;;;;25.27;15.07;;;4.20;99.90;;;;;;5067988;28;20186;-59
2020/12/10 08:31:36;;;;;;;26.85;13.95;;;4.10;99.90;;;;;;5066155;28;20189;-58
2020/12/10 08:34:14;;;;;;;17.77;12.65;;;4.30;99.90;;;;;;5067370;28;20185;-56
2020/12/10 08:36:40;;;;;;;19.05;13.15;;;4.10;99.90;;;;;;5067162;28;20697;-57
2020/12/10 08:39:05;;;;;;;17.70;12.73;;;3.90;99.90;;;;;;5066931;28;20185;-58
2020/12/10 08:41:33;;;;;;;22.20;13.90;;;3.80;99.90;;;;;;5069325;28;20258;-59
2020/12/10 08:44:05;;;;;;;23.38;14.48;;;4.00;99.90;;;;;;5067922;28;20196;-58
2020/12/10 08:46:31;;;;;;;20.58;13.95;;;4.00;99.90;;;;;;5068145;28;20207;-58
2020/12/10 08:49:18;;;;;;;18.95;13.30;;;3.90;99.90;;;;;;5067648;28;20189;-59
2020/12/10 08:51:45;;;;;;;9.60;7.13;;;4.10;99.90;;;;;;5065329;28;20185;-57
2020/12/10 08:54:11;;;;;;;14.07;9.90;;;3.90;99.90;;;;;;5062231;28;20216;-58
2020/12/10 08:56:38;;;;;;;16.07;10.70;;;4.50;99.90;;;;;;5068502;28;20201;-59
2020/12/10 08:59:04;;;;;;;15.45;10.55;;;4.10;99.90;;;;;;5068308;28;20186;-59
2020/12/10 09:01:30;;;;;;;14.50;9.88;;;4.20;99.90;;;;;;5069445;28;20815;-56
2020/12/10 09:03:56;;;;;;;19.33;12.05;;;4.00;99.90;;;;;;5084275;28;21114;-55
2020/12/10 09:06:23;;;;;;;17.73;11.93;;;3.80;99.90;;;;;;5068322;28;20213;-57
2020/12/10 09:08:51;;;;;;;18.10;12.50;;;4.00;99.90;;;;;;5067504;28;20959;-56
2020/12/10 09:11:17;;;;;;;15.82;11.10;;;4.10;99.90;;;;;;5065906;28;20201;-56
2020/12/10 09:13:43;;;;;;;16.42;11.73;;;4.30;99.90;;;;;;5068001;28;20189;-57
2020/12/10 09:16:09;;;;;;;16.83;12.30;;;4.40;99.90;;;;;;5067316;28;20281;-56
2020/12/10 09:18:35;;;;;;;18.30;11.90;;;4.20;99.90;;;;;;5065851;28;20444;-57
2020/12/10 09:21:01;;;;;;;18.40;11.83;;;4.20;99.90;;;;;;5065955;28;20189;-57
2020/12/10 09:23:26;;;;;;;16.57;11.10;;;4.30;99.90;;;;;;5068057;28;20524;-57
2020/12/10 09:25:53;;;;;;;16.37;11.03;;;4.10;99.90;;;;;;5067042;28;20630;-57
2020/12/10 09:28:19;;;;;;;11.05;8.00;;;4.20;99.90;;;;;;5067783;28;20280;-57
2020/12/10 09:30:45;;;;;;;11.73;7.70;;;4.30;99.90;;;;;;5067598;28;20188;-58
2020/12/10 09:33:11;;;;;;;11.15;8.13;;;4.70;99.90;;;;;;5066361;28;20220;-57
2020/12/10 09:35:37;;;;;;;12.83;9.20;;;4.60;99.90;;;;;;5082810;28;20240;-57
2020/12/10 09:38:03;;;;;;;11.13;8.87;;;4.20;99.90;;;;;;5067171;28;20805;-56
2020/12/10 09:40:29;;;;;;;10.57;8.43;;;4.30;99.90;;;;;;5083667;28;20181;-56
2020/12/10 09:42:55;;;;;;;12.73;8.43;;;4.40;99.90;;;;;;5067572;28;20300;-57
2020/12/10 09:45:21;;;;;;;12.97;8.93;;;4.50;99.90;;;;;;5064720;28;20215;-56
2020/12/10 09:47:47;;;;;;;10.75;8.20;;;4.70;99.90;;;;;;5071999;28;20194;-56
2020/12/10 09:50:22;;;;;;;12.00;8.65;;;4.80;99.90;;;;;;5068208;28;20685;-56
2020/12/10 09:57:52;;;;;;;9.93;8.27;;;5.00;99.90;;;;;;5068748;28;20179;-56
2020/12/10 10:00:17;;;;;;;11.87;8.67;;;5.10;99.90;;;;;;5067327;28;20560;-56
2020/12/10 10:02:43;;;;;;;12.20;9.40;;;5.00;99.90;;;;;;5066430;28;20266;-56
2020/12/10 10:05:08;;;;;;;11.53;8.87;;;5.20;99.90;;;;;;5068046;28;20232;-56
2020/12/10 10:07:39;;;;;;;10.23;8.10;;;5.20;99.90;;;;;;5067677;28;20306;-56
2020/12/10 10:10:05;;;;;;;11.13;8.07;;;4.80;99.90;;;;;;5067344;28;20193;-57
2020/12/10 10:12:30;;;;;;;13.90;9.03;;;5.30;99.90;;;;;;5066471;28;20204;-55
2020/12/10 10:14:56;;;;;;;9.03;7.33;;;5.20;99.90;;;;;;5067137;28;20225;-56
2020/12/10 10:17:23;;;;;;;9.90;7.80;;;5.10;99.90;;;;;;5066567;28;20189;-57
2020/12/10 10:19:48;;;;;;;8.70;7.03;;;4.80;99.90;;;;;;5067300;28;20221;-57
2020/12/10 10:22:15;;;;;;;8.47;7.33;;;5.10;99.90;;;;;;5067510;28;20191;-58
2020/12/10 10:24:40;;;;;;;9.98;7.38;;;5.10;99.90;;;;;;5066679;28;20205;-58
2020/12/10 10:27:06;;;;;;;13.30;9.10;;;5.30;99.90;;;;;;5064536;28;20182;-56
2020/12/10 10:29:32;;;;;;;11.03;8.00;;;5.00;99.90;;;;;;5060617;28;20654;-57
2020/12/10 10:31:57;;;;;;;11.43;9.23;;;5.10;99.90;;;;;;5066546;28;20192;-58
2020/12/10 10:34:23;;;;;;;11.10;8.47;;;5.10;99.90;;;;;;5068413;28;20209;-58
2020/12/10 10:36:50;;;;;;;9.97;8.10;;;4.80;99.90;;;;;;5061330;28;20388;-56
2020/12/10 10:39:16;;;;;;;10.43;8.07;;;4.80;99.90;;;;;;5065295;28;20257;-57
2020/12/10 10:41:46;;;;;;;10.23;7.72;;;5.40;99.90;;;;;;5066320;28;20545;-57
2020/12/10 10:44:13;;;;;;;11.10;8.52;;;5.10;99.90;;;;;;5080662;28;20209;-56
2020/12/10 10:46:38;;;;;;;11.50;8.00;;;5.30;99.90;;;;;;5065169;28;20301;-56
2020/12/10 10:49:04;;;;;;;10.27;8.00;;;5.30;99.90;;;;;;5065128;28;20206;-57
2020/12/10 10:51:30;;;;;;;10.73;8.10;;;4.90;99.90;;;;;;5067037;28;20181;-57
2020/12/10 10:53:56;;;;;;;12.33;8.67;;;5.00;99.90;;;;;;5065595;28;20195;-58
2020/12/10 10:56:23;;;;;;;11.90;8.70;;;5.30;99.90;;;;;;5066508;28;20237;-56
2020/12/10 10:58:49;;;;;;;11.32;8.32;;;5.40;99.90;;;;;;5065384;28;20253;-55
2020/12/10 11:01:15;;;;;;;11.67;8.53;;;5.30;99.90;;;;;;5067173;28;20676;-57
2020/12/10 11:03:41;;;;;;;14.73;10.07;;;5.10;99.90;;;;;;5068583;28;20464;-59
2020/12/10 11:06:09;;;;;;;11.30;9.52;;;5.10;99.90;;;;;;5067539;28;20564;-57
2020/12/10 11:08:34;;;;;;;12.73;8.70;;;5.00;99.90;;;;;;5070398;28;20547;-59
2020/12/10 11:11:00;;;;;;;12.23;8.80;;;5.20;99.90;;;;;;5067728;28;20189;-58
2020/12/10 11:13:26;;;;;;;9.80;7.67;;;5.20;99.90;;;;;;5069751;28;20602;-56
2020/12/10 11:15:51;;;;;;;13.40;10.10;;;5.40;99.90;;;;;;5069706;28;20551;-55
2020/12/10 11:18:17;;;;;;;11.70;9.07;;;5.30;99.90;;;;;;5068196;28;20231;-58
2020/12/10 11:20:43;;;;;;;14.10;9.40;;;5.20;99.90;;;;;;5069768;28;20183;-59
2020/12/10 11:23:09;;;;;;;12.73;9.13;;;5.30;99.90;;;;;;5070283;28;20483;-58
2020/12/10 11:25:34;;;;;;;13.17;9.67;;;5.20;99.90;;;;;;5068161;28;20584;-58
2020/12/10 11:28:00;;;;;;;13.20;9.90;;;5.40;99.90;;;;;;5075237;28;20181;-57
2020/12/10 11:30:25;;;;;;;14.67;10.43;;;5.10;99.90;;;;;;5070132;28;20188;-58
2020/12/10 11:32:51;;;;;;;12.30;9.87;;;5.30;99.90;;;;;;5071246;28;20186;-58
2020/12/10 11:35:17;;;;;;;14.77;10.40;;;5.20;99.90;;;;;;5069514;28;20220;-58
2020/12/10 11:37:42;;;;;;;16.30;10.97;;;4.90;99.90;;;;;;5069428;28;20671;-59
2020/12/10 11:40:08;;;;;;;15.20;10.93;;;4.90;99.90;;;;;;5064773;28;20239;-59
2020/12/10 11:42:34;;;;;;;15.17;11.00;;;4.80;99.90;;;;;;5069568;28;20229;-59
2020/12/10 11:45:01;;;;;;;15.40;11.07;;;5.00;99.90;;;;;;5068082;28;20205;-58
2020/12/10 11:47:28;;;;;;;13.65;9.73;;;5.10;99.90;;;;;;5068975;28;20181;-59
2020/12/10 11:49:53;;;;;;;16.20;11.70;;;4.90;99.90;;;;;;5069562;28;20208;-56
2020/12/10 11:52:19;;;;;;;14.87;10.47;;;5.00;99.90;;;;;;5069041;28;20646;-56
2020/12/10 11:54:45;;;;;;;15.97;11.43;;;4.90;99.90;;;;;;5071224;28;20202;-57
2020/12/10 11:57:11;;;;;;;15.87;11.67;;;4.90;99.90;;;;;;5069709;28;20295;-57
2020/12/10 11:59:37;;;;;;;15.95;10.98;;;5.00;99.90;;;;;;5066246;28;20188;-57
2020/12/10 12:02:03;;;;;;;15.50;10.93;;;4.70;99.90;;;;;;5066379;28;20181;-56
2020/12/10 12:04:29;;;;;;;16.23;12.27;;;4.80;99.90;;;;;;5069122;28;20523;-57
2020/12/10 12:06:55;;;;;;;16.70;11.73;;;4.60;99.90;;;;;;5067634;28;20276;-57
2020/12/10 12:09:20;;;;;;;17.80;10.77;;;4.90;99.90;;;;;;5068414;28;20186;-57
2020/12/10 12:11:46;;;;;;;15.23;10.60;;;4.90;99.90;;;;;;5068403;28;20189;-57
2020/12/10 12:14:11;;;;;;;16.23;11.37;;;4.60;99.90;;;;;;5068112;28;20659;-56
2020/12/10 12:16:37;;;;;;;17.67;12.03;;;4.70;99.90;;;;;;5068918;28;20666;-56
2020/12/10 12:19:03;;;;;;;18.43;11.73;;;4.80;99.90;;;;;;5069084;28;20310;-56
2020/12/10 12:21:29;;;;;;;16.00;11.43;;;4.50;99.90;;;;;;5068528;28;20928;-56
2020/12/10 12:23:55;;;;;;;12.80;10.10;;;5.10;99.90;;;;;;5069289;28;20186;-56
2020/12/10 12:26:29;;;;;;;14.38;10.20;;;4.90;99.90;;;;;;5068085;28;20835;-57
2020/12/10 12:28:55;;;;;;;15.20;10.23;;;5.10;99.90;;;;;;5065840;28;20182;-56
2020/12/10 12:31:27;;;;;;;16.70;10.57;;;5.20;99.90;;;;;;5068712;28;20666;-56
2020/12/10 12:33:52;;;;;;;13.50;10.95;;;5.40;99.90;;;;;;5068603;28;20571;-58
2020/12/10 12:36:18;;;;;;;15.30;10.90;;;5.30;99.90;;;;;;5067842;28;20228;-56
2020/12/10 12:38:44;;;;;;;16.92;11.75;;;5.30;99.90;;;;;;5066905;28;20182;-58
2020/12/10 12:41:09;;;;;;;18.87;11.90;;;5.30;99.90;;;;;;5068013;28;20187;-57
2020/12/10 12:43:35;;;;;;;16.27;11.77;;;5.30;99.90;;;;;;5064699;28;20265;-58
2020/12/10 12:46:02;;;;;;;17.53;11.67;;;5.00;99.90;;;;;;5084246;28;20222;-56
2020/12/10 12:48:27;;;;;;;18.60;13.68;;;5.20;99.90;;;;;;5063777;28;20195;-56